createdAt,value
2022-11-30T00:18:10.756Z,5.57
2022-11-30T00:38:10.821Z,5.53
2022-11-30T00:58:10.859Z,5.48
2022-11-30T01:18:10.900Z,5.45
2022-11-30T01:38:10.983Z,5.45
2022-11-30T01:58:10.899Z,5.45
2022-11-30T02:18:11.087Z,5.38
2022-11-30T02:38:11.126Z,5.31
2022-11-30T02:58:11.043Z,5.24
2022-11-30T03:18:11.158Z,5.23
2022-11-30T03:38:11.153Z,5.18
2022-11-30T03:58:11.171Z,5.16
2022-11-30T04:18:11.289Z,5.11
2022-11-30T04:38:11.409Z,5.02
2022-11-30T04:58:11.299Z,4.97
2022-11-30T05:18:11.348Z,4.96
2022-11-30T05:38:11.437Z,4.98
2022-11-30T05:58:11.506Z,5.01
2022-11-30T06:18:11.573Z,5.07
2022-11-30T06:38:11.567Z,5.04
2022-11-30T06:58:11.660Z,5.11
2022-11-30T07:18:11.692Z,5.18
2022-11-30T07:38:11.771Z,5.29
2022-11-30T07:58:17.074Z,5.43
2022-11-30T08:18:11.797Z,5.58
2022-11-30T08:38:11.950Z,5.43
2022-11-30T08:58:11.879Z,5.76
2022-11-30T09:18:12.031Z,6.05
2022-11-30T09:38:11.979Z,6.31
2022-11-30T09:58:11.942Z,5.99
2022-11-30T10:18:12.008Z,5.79
2022-11-30T10:58:12.187Z,5.78
2022-11-30T11:18:12.177Z,5.86
2022-11-30T11:38:12.235Z,5.46
2022-11-30T11:58:12.364Z,5.5
2022-11-30T12:18:16.082Z,5.54
2022-11-30T12:38:12.492Z,5.56
2022-11-30T12:58:12.387Z,5.85
2022-11-30T13:18:12.507Z,6
2022-11-30T13:38:35.579Z,5.77
2022-11-30T13:58:12.476Z,5.54
2022-11-30T14:18:12.616Z,5.47
2022-11-30T14:38:12.619Z,5.4
2022-11-30T14:58:12.716Z,5.19
2022-11-30T15:18:12.809Z,5.02
2022-11-30T15:38:12.780Z,4.66
2022-11-30T15:58:12.857Z,4.42
2022-11-30T16:18:12.785Z,4.26
2022-11-30T16:38:12.868Z,4.15
2022-11-30T16:58:12.877Z,4.01
2022-11-30T17:18:13.019Z,3.95
2022-11-30T17:38:12.974Z,3.95
2022-11-30T17:58:13.027Z,3.85
2022-11-30T18:18:13.197Z,3.65
2022-11-30T18:38:13.524Z,3.61
2022-11-30T18:58:13.289Z,3.55
2022-11-30T19:18:13.832Z,3.3
2022-11-30T19:38:13.443Z,3.17
2022-11-30T19:58:13.329Z,3.19
2022-11-30T20:18:13.354Z,3.16
2022-11-30T20:38:13.457Z,3.09
2022-11-30T20:58:13.346Z,2.96
2022-11-30T21:18:13.380Z,2.9
2022-11-30T21:38:13.570Z,2.73
2022-11-30T21:58:13.604Z,2.72
2022-11-30T22:18:13.708Z,2.73
2022-11-30T22:38:13.769Z,2.71
2022-11-30T22:58:13.701Z,2.6
2022-11-30T23:18:13.773Z,2.73
2022-11-30T23:38:13.876Z,2.81
2022-11-30T23:58:14.197Z,2.9
